sensor_id;sensor_type;location;lat;lon;timestamp;temperature;humidity
45313;SHT31;68267;51.540;5.854;2023-11-21T00:02:31;7.8;91.2
45313;SHT31;68267;51.540;5.854;2023-11-21T00:15:51;7.8;91.8
45313;SHT31;68267;51.540;5.854;2023-11-21T00:29:10;8.0;92.0
45313;SHT31;68267;51.540;5.854;2023-11-21T00:42:30;8.1;92.1
45313;SHT31;68267;51.540;5.854;2023-11-21T00:55:50;8.0;92.2
45313;SHT31;68267;51.540;5.854;2023-11-21T01:09:12;7.8;92.5
45313;SHT31;68267;51.540;5.854;2023-11-21T01:22:32;7.8;92.4
45313;SHT31;68267;51.540;5.854;2023-11-21T01:35:51;7.9;92.6
45313;SHT31;68267;51.540;5.854;2023-11-21T01:49:13;8.0;93.0
45313;SHT31;68267;51.540;5.854;2023-11-21T02:02:33;8.1;93.2
45313;SHT31;68267;51.540;5.854;2023-11-21T02:15:53;8.2;93.1
45313;SHT31;68267;51.540;5.854;2023-11-21T02:29:12;8.1;93.6
45313;SHT31;68267;51.540;5.854;2023-11-21T02:42:32;8.0;94.2
45313;SHT31;68267;51.540;5.854;2023-11-21T02:55:52;8.0;94.0
45313;SHT31;68267;51.540;5.854;2023-11-21T03:09:11;8.0;93.8
45313;SHT31;68267;51.540;5.854;2023-11-21T03:22:31;7.8;94.0
45313;SHT31;68267;51.540;5.854;2023-11-21T03:35:51;7.9;93.7
45313;SHT31;68267;51.540;5.854;2023-11-21T03:49:10;7.8;93.6
45313;SHT31;68267;51.540;5.854;2023-11-21T04:02:30;7.7;93.8
45313;SHT31;68267;51.540;5.854;2023-11-21T04:15:50;7.7;93.4
45313;SHT31;68267;51.540;5.854;2023-11-21T04:29:09;7.6;93.6
45313;SHT31;68267;51.540;5.854;2023-11-21T04:42:29;7.7;93.4
45313;SHT31;68267;51.540;5.854;2023-11-21T04:55:49;7.6;93.3
45313;SHT31;68267;51.540;5.854;2023-11-21T05:09:11;7.4;93.6
45313;SHT31;68267;51.540;5.854;2023-11-21T05:22:30;7.6;93.3
45313;SHT31;68267;51.540;5.854;2023-11-21T05:35:50;7.5;93.4
45313;SHT31;68267;51.540;5.854;2023-11-21T05:49:10;7.3;93.6
45313;SHT31;68267;51.540;5.854;2023-11-21T06:02:29;7.4;93.7
45313;SHT31;68267;51.540;5.854;2023-11-21T06:15:49;7.2;94.3
45313;SHT31;68267;51.540;5.854;2023-11-21T06:29:08;7.5;93.6
45313;SHT31;68267;51.540;5.854;2023-11-21T06:42:28;7.6;93.6
45313;SHT31;68267;51.540;5.854;2023-11-21T06:55:48;7.8;93.0
45313;SHT31;68267;51.540;5.854;2023-11-21T07:09:08;7.7;92.9
45313;SHT31;68267;51.540;5.854;2023-11-21T07:22:27;7.8;93.0
45313;SHT31;68267;51.540;5.854;2023-11-21T07:35:47;7.8;92.7
45313;SHT31;68267;51.540;5.854;2023-11-21T07:49:07;7.9;92.8
45313;SHT31;68267;51.540;5.854;2023-11-21T08:02:26;7.9;92.7
45313;SHT31;68267;51.540;5.854;2023-11-21T08:15:46;7.9;92.9
45313;SHT31;68267;51.540;5.854;2023-11-21T08:29:06;7.9;93.3
45313;SHT31;68267;51.540;5.854;2023-11-21T08:42:25;8.0;93.5
45313;SHT31;68267;51.540;5.854;2023-11-21T08:55:45;8.0;93.8
45313;SHT31;68267;51.540;5.854;2023-11-21T09:09:04;8.3;93.8
45313;SHT31;68267;51.540;5.854;2023-11-21T09:22:24;8.5;93.4
45313;SHT31;68267;51.540;5.854;2023-11-21T09:35:44;8.6;93.6
45313;SHT31;68267;51.540;5.854;2023-11-21T09:49:03;8.9;93.3
45313;SHT31;68267;51.540;5.854;2023-11-21T10:02:23;9.0;93.3
45313;SHT31;68267;51.540;5.854;2023-11-21T10:15:43;9.1;93.3
45313;SHT31;68267;51.540;5.854;2023-11-21T10:29:02;9.3;93.3
45313;SHT31;68267;51.540;5.854;2023-11-21T10:42:22;9.3;93.3
45313;SHT31;68267;51.540;5.854;2023-11-21T10:55:42;9.6;93.1
45313;SHT31;68267;51.540;5.854;2023-11-21T11:09:01;9.9;92.6
45313;SHT31;68267;51.540;5.854;2023-11-21T11:22:21;10.2;92.4
45313;SHT31;68267;51.540;5.854;2023-11-21T11:35:40;10.5;91.9
45313;SHT31;68267;51.540;5.854;2023-11-21T11:49:00;10.5;91.3
45313;SHT31;68267;51.540;5.854;2023-11-21T12:02:20;10.6;91.3
45313;SHT31;68267;51.540;5.854;2023-11-21T12:15:39;10.6;90.9
45313;SHT31;68267;51.540;5.854;2023-11-21T12:28:59;10.3;91.4
45313;SHT31;68267;51.540;5.854;2023-11-21T12:42:19;10.2;91.7
45313;SHT31;68267;51.540;5.854;2023-11-21T12:55:38;10.6;91.3
45313;SHT31;68267;51.540;5.854;2023-11-21T13:08:58;10.7;91.0
45313;SHT31;68267;51.540;5.854;2023-11-21T13:22:18;10.9;90.9
45313;SHT31;68267;51.540;5.854;2023-11-21T13:35:37;10.8;90.8
45313;SHT31;68267;51.540;5.854;2023-11-21T13:48:57;11.0;90.5
45313;SHT31;68267;51.540;5.854;2023-11-21T14:02:17;11.3;90.5
45313;SHT31;68267;51.540;5.854;2023-11-21T14:15:36;11.3;89.7
45313;SHT31;68267;51.540;5.854;2023-11-21T14:28:58;11.4;89.7
45313;SHT31;68267;51.540;5.854;2023-11-21T14:42:18;10.9;90.0
45313;SHT31;68267;51.540;5.854;2023-11-21T14:55:38;10.8;90.3
45313;SHT31;68267;51.540;5.854;2023-11-21T15:08:57;10.8;90.1
45313;SHT31;68267;51.540;5.854;2023-11-21T15:22:17;10.7;90.0
45313;SHT31;68267;51.540;5.854;2023-11-21T15:35:37;10.5;89.8
45313;SHT31;68267;51.540;5.854;2023-11-21T15:48:56;10.6;89.7
45313;SHT31;68267;51.540;5.854;2023-11-21T16:02:16;10.4;89.9
45313;SHT31;68267;51.540;5.854;2023-11-21T16:15:36;10.2;89.4
45313;SHT31;68267;51.540;5.854;2023-11-21T16:28:55;10.1;89.3
45313;SHT31;68267;51.540;5.854;2023-11-21T16:42:15;10.0;89.3
45313;SHT31;68267;51.540;5.854;2023-11-21T16:55:35;9.6;89.5
45313;SHT31;68267;51.540;5.854;2023-11-21T17:08:57;9.0;89.5
45313;SHT31;68267;51.540;5.854;2023-11-21T17:22:16;8.6;88.6
45313;SHT31;68267;51.540;5.854;2023-11-21T17:35:36;8.7;88.1
45313;SHT31;68267;51.540;5.854;2023-11-21T17:48:56;8.6;87.5
45313;SHT31;68267;51.540;5.854;2023-11-21T18:02:15;8.5;86.9
45313;SHT31;68267;51.540;5.854;2023-11-21T18:15:35;8.3;86.5
45313;SHT31;68267;51.540;5.854;2023-11-21T18:28:55;7.9;86.7
45313;SHT31;68267;51.540;5.854;2023-11-21T18:42:14;7.5;86.7
45313;SHT31;68267;51.540;5.854;2023-11-21T18:55:34;7.1;87.2
45313;SHT31;68267;51.540;5.854;2023-11-21T19:08:54;6.8;87.6
45313;SHT31;68267;51.540;5.854;2023-11-21T19:22:16;6.6;88.0
45313;SHT31;68267;51.540;5.854;2023-11-21T19:35:38;6.5;88.2
45313;SHT31;68267;51.540;5.854;2023-11-21T19:48:58;6.4;88.8
45313;SHT31;68267;51.540;5.854;2023-11-21T20:02:17;6.1;88.3
45313;SHT31;68267;51.540;5.854;2023-11-21T20:15:37;6.0;88.2
45313;SHT31;68267;51.540;5.854;2023-11-21T20:28:56;5.6;88.6
45313;SHT31;68267;51.540;5.854;2023-11-21T20:42:16;5.7;88.9
45313;SHT31;68267;51.540;5.854;2023-11-21T20:55:36;5.5;89.7
45313;SHT31;68267;51.540;5.854;2023-11-21T21:08:55;5.5;89.3
45313;SHT31;68267;51.540;5.854;2023-11-21T21:22:15;5.3;89.4
45313;SHT31;68267;51.540;5.854;2023-11-21T21:35:35;5.2;89.5
45313;SHT31;68267;51.540;5.854;2023-11-21T21:48:57;5.0;89.6
45313;SHT31;68267;51.540;5.854;2023-11-21T22:02:19;4.9;89.6
45313;SHT31;68267;51.540;5.854;2023-11-21T22:15:39;4.8;90.6
45313;SHT31;68267;51.540;5.854;2023-11-21T22:28:58;4.8;90.8
45313;SHT31;68267;51.540;5.854;2023-11-21T22:42:18;4.8;91.8
45313;SHT31;68267;51.540;5.854;2023-11-21T22:55:38;4.8;91.8
45313;SHT31;68267;51.540;5.854;2023-11-21T23:08:57;4.6;90.9
45313;SHT31;68267;51.540;5.854;2023-11-21T23:22:17;4.4;90.0
45313;SHT31;68267;51.540;5.854;2023-11-21T23:35:36;4.1;90.2
45313;SHT31;68267;51.540;5.854;2023-11-21T23:48:56;4.0;90.5
